Time;durP1;ratioP1;P1;durP2;ratioP2;P2;SDS_P1;SDS_P2;PMS_P1;PMS_P2;Temp;Humidity;BMP_temperature;BMP_pressure;BME280_temperature;BME280_humidity;BME280_pressure;Samples;Min_cycle;Max_cycle;Signal;HPM_P1;HPM_P2
2022/10/12 00:02:23;;;;;;;11;6.3;;;;;;;;;;;;;
2022/10/12 00:04:48;;;;;;;11.2;6.1;;;;;;;;;;;;;
2022/10/12 00:07:14;;;;;;;9.5;6.7;;;;;;;;;;;;;
2022/10/12 00:09:39;;;;;;;13.9;6.2;;;;;;;;;;;;;
2022/10/12 00:19:57;;;;;;;9.5;5.5;;;;;;;;;;;;;
2022/10/12 00:24:49;;;;;;;13.7;5.9;;;;;;;;;;;;;
2022/10/12 00:27:14;;;;;;;7.5;5.2;;;;;;;;;;;;;
2022/10/12 00:29:41;;;;;;;8.9;5.9;;;;;;;;;;;;;
2022/10/12 00:32:19;;;;;;;9.1;5.8;;;;;;;;;;;;;
2022/10/12 00:34:44;;;;;;;13;6.5;;;;;;;;;;;;;
2022/10/12 00:37:10;;;;;;;10.7;6.1;;;;;;;;;;;;;
2022/10/12 00:39:34;;;;;;;10;6.2;;;;;;;;;;;;;
2022/10/12 00:41:59;;;;;;;8.6;6.2;;;;;;;;;;;;;
2022/10/12 00:44:24;;;;;;;12.8;6.2;;;;;;;;;;;;;
2022/10/12 00:46:49;;;;;;;11.8;6.5;;;;;;;;;;;;;
2022/10/12 00:49:14;;;;;;;10;6.4;;;;;;;;;;;;;
2022/10/12 00:51:39;;;;;;;9.1;5.8;;;;;;;;;;;;;
2022/10/12 00:54:04;;;;;;;10.5;6.3;;;;;;;;;;;;;
2022/10/12 00:56:30;;;;;;;11.1;6.3;;;;;;;;;;;;;
2022/10/12 00:58:55;;;;;;;10.3;6.1;;;;;;;;;;;;;
2022/10/12 01:01:20;;;;;;;10.2;6.5;;;;;;;;;;;;;
2022/10/12 01:03:45;;;;;;;11.2;7.3;;;;;;;;;;;;;
2022/10/12 01:06:10;;;;;;;11.8;7;;;;;;;;;;;;;
2022/10/12 01:08:36;;;;;;;13.7;8.3;;;;;;;;;;;;;
2022/10/12 01:11:01;;;;;;;14.4;9.7;;;;;;;;;;;;;
2022/10/12 01:13:27;;;;;;;14.2;9.7;;;;;;;;;;;;;
2022/10/12 01:15:52;;;;;;;17.2;11;;;;;;;;;;;;;
2022/10/12 01:18:20;;;;;;;13.1;10.4;;;;;;;;;;;;;
2022/10/12 01:20:45;;;;;;;16.1;12.6;;;;;;;;;;;;;
2022/10/12 01:23:11;;;;;;;19.8;13;;;;;;;;;;;;;
2022/10/12 01:25:36;;;;;;;21.6;15;;;;;;;;;;;;;
2022/10/12 01:28:03;;;;;;;22.9;16;;;;;;;;;;;;;
2022/10/12 01:30:28;;;;;;;19.7;14.6;;;;;;;;;;;;;
2022/10/12 01:32:53;;;;;;;22.6;15.7;;;;;;;;;;;;;
2022/10/12 01:35:23;;;;;;;21.8;15.7;;;;;;;;;;;;;
2022/10/12 01:37:48;;;;;;;23.1;16;;;;;;;;;;;;;
2022/10/12 01:40:13;;;;;;;21.8;15.9;;;;;;;;;;;;;
2022/10/12 01:45:13;;;;;;;24.6;16.2;;;;;;;;;;;;;
2022/10/12 01:47:38;;;;;;;23.6;15.5;;;;;;;;;;;;;
2022/10/12 01:50:04;;;;;;;22.8;16;;;;;;;;;;;;;
2022/10/12 01:52:29;;;;;;;25.2;15.4;;;;;;;;;;;;;
2022/10/12 01:54:55;;;;;;;21.9;15;;;;;;;;;;;;;
2022/10/12 01:57:21;;;;;;;22.1;15.4;;;;;;;;;;;;;
2022/10/12 01:59:46;;;;;;;22;15.5;;;;;;;;;;;;;
2022/10/12 02:02:11;;;;;;;25.2;15.8;;;;;;;;;;;;;
2022/10/12 02:04:36;;;;;;;22.2;16.2;;;;;;;;;;;;;
2022/10/12 02:07:01;;;;;;;26.8;16;;;;;;;;;;;;;
2022/10/12 02:09:26;;;;;;;23.6;15.5;;;;;;;;;;;;;
2022/10/12 02:11:51;;;;;;;23.9;15.8;;;;;;;;;;;;;
2022/10/12 02:14:18;;;;;;;24.5;16.1;;;;;;;;;;;;;
2022/10/12 02:16:47;;;;;;;21.7;15.9;;;;;;;;;;;;;
2022/10/12 02:19:13;;;;;;;27.7;16.8;;;;;;;;;;;;;
2022/10/12 02:21:38;;;;;;;25.2;16.9;;;;;;;;;;;;;
2022/10/12 02:24:04;;;;;;;22.6;15.9;;;;;;;;;;;;;
2022/10/12 02:28:54;;;;;;;23.5;15.8;;;;;;;;;;;;;
2022/10/12 02:31:19;;;;;;;22.2;15.8;;;;;;;;;;;;;
2022/10/12 02:33:44;;;;;;;24.7;16;;;;;;;;;;;;;
2022/10/12 02:36:10;;;;;;;26.1;15.5;;;;;;;;;;;;;
2022/10/12 02:38:35;;;;;;;21.5;15;;;;;;;;;;;;;
2022/10/12 02:41:03;;;;;;;28.3;16.3;;;;;;;;;;;;;
2022/10/12 02:43:28;;;;;;;23.4;15.6;;;;;;;;;;;;;
2022/10/12 02:45:53;;;;;;;21.6;15.8;;;;;;;;;;;;;
2022/10/12 02:48:18;;;;;;;24.2;16.6;;;;;;;;;;;;;
2022/10/12 02:50:44;;;;;;;23.2;16.3;;;;;;;;;;;;;
2022/10/12 02:53:11;;;;;;;25.5;16.2;;;;;;;;;;;;;
2022/10/12 02:55:37;;;;;;;23.2;15.9;;;;;;;;;;;;;
2022/10/12 02:58:02;;;;;;;25.2;16.3;;;;;;;;;;;;;
2022/10/12 03:00:28;;;;;;;23.3;16.2;;;;;;;;;;;;;
2022/10/12 03:02:53;;;;;;;24.8;16.1;;;;;;;;;;;;;
2022/10/12 03:05:19;;;;;;;25.8;16.2;;;;;;;;;;;;;
2022/10/12 03:07:44;;;;;;;25.5;16.8;;;;;;;;;;;;;
2022/10/12 03:10:10;;;;;;;26.5;16.8;;;;;;;;;;;;;
2022/10/12 03:12:35;;;;;;;25;16.9;;;;;;;;;;;;;
2022/10/12 03:15:00;;;;;;;24.9;17.9;;;;;;;;;;;;;
2022/10/12 03:17:25;;;;;;;23.7;16.5;;;;;;;;;;;;;
2022/10/12 03:19:50;;;;;;;26.4;16.4;;;;;;;;;;;;;
2022/10/12 03:22:15;;;;;;;26.6;17.3;;;;;;;;;;;;;
2022/10/12 03:24:40;;;;;;;22.8;17;;;;;;;;;;;;;
2022/10/12 03:27:06;;;;;;;24.7;16.9;;;;;;;;;;;;;
2022/10/12 03:29:31;;;;;;;24.8;17;;;;;;;;;;;;;
2022/10/12 03:31:57;;;;;;;27.4;16.3;;;;;;;;;;;;;
2022/10/12 03:34:23;;;;;;;24.5;17.6;;;;;;;;;;;;;
2022/10/12 03:36:50;;;;;;;25.5;17.7;;;;;;;;;;;;;
2022/10/12 03:39:15;;;;;;;27.4;17.9;;;;;;;;;;;;;
2022/10/12 03:41:41;;;;;;;25.5;16.6;;;;;;;;;;;;;
2022/10/12 03:44:06;;;;;;;25.6;15.6;;;;;;;;;;;;;
2022/10/12 03:46:33;;;;;;;23.5;14.8;;;;;;;;;;;;;
2022/10/12 03:48:58;;;;;;;25.2;16.1;;;;;;;;;;;;;
2022/10/12 03:51:25;;;;;;;26.5;16.8;;;;;;;;;;;;;
2022/10/12 03:53:50;;;;;;;22.2;15.8;;;;;;;;;;;;;
2022/10/12 03:56:16;;;;;;;24.5;16.5;;;;;;;;;;;;;
2022/10/12 03:58:41;;;;;;;24.6;16.2;;;;;;;;;;;;;
2022/10/12 04:02:38;;;;;;;23.7;16;;;;;;;14.9;91.63867;942.7786;;;;
2022/10/12 04:05:04;;;;;;;21.3;15.8;;;;;;;14.81;92.18652;942.7718;;;;
2022/10/12 04:07:28;;;;;;;24.4;16.1;;;;;;;14.81;92.29102;942.7573;;;;
2022/10/12 04:09:54;;;;;;;21.2;14.8;;;;;;;14.79;92.42383;942.755;;;;
2022/10/12 04:12:24;;;;;;;18.7;14;;;;;;;14.82;92.45215;942.7336;;;;
2022/10/12 04:14:54;;;;;;;21.6;14.9;;;;;;;14.8;92.47363;942.7486;;;;
2022/10/12 04:24:08;;;;;;;27.7;18;;;;;;;14.52;94.39648;942.7697;;;;
2022/10/12 04:26:33;;;;;;;25.3;17;;;;;;;14.54;94.48047;942.8337;;;;
2022/10/12 04:29:02;;;;;;;23.8;16.4;;;;;;;14.6;94.00977;942.8002;;;;
2022/10/12 04:31:27;;;;;;;23.9;16.8;;;;;;;14.63;93.79688;942.7813;;;;
2022/10/12 04:33:55;;;;;;;25.4;16;;;;;;;14.68;93.55469;942.8775;;;;
2022/10/12 04:36:20;;;;;;;23.5;16.2;;;;;;;14.68;93.46094;942.8239;;;;
2022/10/12 04:38:50;;;;;;;23.6;15.9;;;;;;;14.68;93.32422;942.8334;;;;
2022/10/12 04:41:25;;;;;;;25.5;16.6;;;;;;;14.71;93.17871;942.8351;;;;
2022/10/12 04:43:51;;;;;;;25.9;16.6;;;;;;;14.74;92.80566;942.8575;;;;
2022/10/12 04:46:17;;;;;;;24.1;16;;;;;;;14.77;92.4541;942.8384;;;;
2022/10/12 04:48:42;;;;;;;23.7;16.3;;;;;;;14.77;92.66211;942.8335;;;;
2022/10/12 04:51:14;;;;;;;23.2;15.9;;;;;;;14.81;92.62305;942.8392;;;;
2022/10/12 04:53:44;;;;;;;24.9;16.7;;;;;;;14.82;92.56738;942.9028;;;;
2022/10/12 04:56:15;;;;;;;25.4;16.5;;;;;;;14.84;92.59668;942.8524;;;;
2022/10/12 04:58:40;;;;;;;22.2;16.4;;;;;;;14.84;92.59668;942.9164;;;;
2022/10/12 05:01:07;;;;;;;23.9;15.9;;;;;;;14.89;92.20215;942.9478;;;;
2022/10/12 05:03:32;;;;;;;26.2;17.7;;;;;;;14.9;92.27539;942.8844;;;;
2022/10/12 05:06:00;;;;;;;27.6;16.7;;;;;;;14.86;92.46191;942.8964;;;;
2022/10/12 05:08:25;;;;;;;25.2;16.8;;;;;;;14.87;92.5332;942.9197;;;;
2022/10/12 05:10:58;;;;;;;27;17.2;;;;;;;14.88;92.43262;942.9197;;;;
2022/10/12 05:13:27;;;;;;;25.1;17;;;;;;;14.88;92.22363;942.9172;;;;
2022/10/12 05:15:53;;;;;;;25.1;16.3;;;;;;;14.9;91.93848;942.9341;;;;
2022/10/12 05:18:23;;;;;;;23.8;16.1;;;;;;;14.85;92.40234;942.9172;;;;
2022/10/12 05:20:48;;;;;;;25.4;17.3;;;;;;;14.78;92.85938;942.9313;;;;
2022/10/12 05:23:15;;;;;;;23.3;15.1;;;;;;;14.8;93.08203;942.9875;;;;
2022/10/12 05:25:40;;;;;;;25.6;16.3;;;;;;;14.76;93.21289;942.9778;;;;
2022/10/12 05:28:06;;;;;;;25.9;16.9;;;;;;;14.73;93.41504;942.9617;;;;
2022/10/12 05:30:31;;;;;;;26.4;16.4;;;;;;;14.69;93.83203;942.9714;;;;
2022/10/12 05:32:56;;;;;;;23.8;15.9;;;;;;;14.65;94.2373;943.0162;;;;
2022/10/12 05:35:22;;;;;;;24.7;16.3;;;;;;;14.63;94.33887;942.9881;;;;
2022/10/12 05:37:50;;;;;;;24;15.9;;;;;;;14.62;94.50977;943.0242;;;;
2022/10/12 05:40:16;;;;;;;24.8;17;;;;;;;14.61;94.66699;943.0295;;;;
2022/10/12 05:42:45;;;;;;;26.3;17.4;;;;;;;14.65;94.44434;943.1011;;;;
2022/10/12 05:45:15;;;;;;;28.5;17.3;;;;;;;14.63;94.41992;943.0747;;;;
2022/10/12 05:47:46;;;;;;;24;16.4;;;;;;;14.63;94.46582;943.1163;;;;
2022/10/12 05:50:15;;;;;;;24.5;16.9;;;;;;;14.72;94.27734;943.0997;;;;
2022/10/12 05:52:40;;;;;;;27.2;16.4;;;;;;;14.76;93.55859;943.1117;;;;
2022/10/12 05:55:11;;;;;;;20.9;15.3;;;;;;;14.77;93.28418;943.0909;;;;
2022/10/12 05:57:36;;;;;;;24.8;15.7;;;;;;;14.74;93.1748;943.1445;;;;
2022/10/12 06:00:01;;;;;;;24.8;15.4;;;;;;;14.73;93.10352;943.1445;;;;
2022/10/12 06:02:30;;;;;;;21.5;14.1;;;;;;;14.72;93.28418;943.1806;;;;
2022/10/12 06:04:55;;;;;;;24.2;14.7;;;;;;;14.71;93.36328;943.175;;;;
2022/10/12 06:07:24;;;;;;;24.1;14.7;;;;;;;14.74;93.2998;943.2039;;;;
2022/10/12 06:09:49;;;;;;;22.3;14.4;;;;;;;14.75;93.29199;943.1599;;;;
2022/10/12 06:12:19;;;;;;;25.7;16.7;;;;;;;14.71;93.39746;943.1766;;;;
2022/10/12 06:14:43;;;;;;;24.1;15.1;;;;;;;14.74;93.37109;943.2151;;;;
2022/10/12 06:17:08;;;;;;;23.2;14.6;;;;;;;14.76;93.29395;943.1942;;;;
2022/10/12 06:19:36;;;;;;;25.4;16;;;;;;;14.7;93.66309;943.2455;;;;
2022/10/12 06:22:07;;;;;;;22.1;16;;;;;;;14.73;93.78418;943.2143;;;;
2022/10/12 06:24:38;;;;;;;23.9;15.7;;;;;;;14.77;93.42285;943.2528;;;;
2022/10/12 06:27:03;;;;;;;24.9;16.1;;;;;;;14.83;92.88086;943.2548;;;;
2022/10/12 06:29:31;;;;;;;20.2;14.5;;;;;;;14.83;92.68848;943.2764;;;;
2022/10/12 06:31:55;;;;;;;11.1;6.9;;;;;;;14.68;90.59277;943.308;;;;
2022/10/12 06:34:25;;;;;;;10.9;6.2;;;;;;;14.64;90.12012;943.2623;;;;
2022/10/12 06:36:51;;;;;;;14;7;;;;;;;14.67;89.81641;943.2607;;;;
2022/10/12 06:39:19;;;;;;;12.3;7.2;;;;;;;14.75;90.0752;943.3306;;;;
2022/10/12 06:41:44;;;;;;;9.6;6.7;;;;;;;14.79;89.79492;943.2889;;;;
2022/10/12 06:44:12;;;;;;;12;6.4;;;;;;;14.86;89.48633;943.2925;;;;
2022/10/12 06:46:37;;;;;;;13.5;7.3;;;;;;;14.9;89.03418;943.2413;;;;
2022/10/12 06:49:04;;;;;;;11.8;6.4;;;;;;;14.94;89.15723;943.3183;;;;
2022/10/12 06:51:29;;;;;;;12.1;6.7;;;;;;;14.95;88.74414;943.2935;;;;
2022/10/12 06:53:54;;;;;;;12.7;6.1;;;;;;;14.99;88.69531;943.2902;;;;
2022/10/12 06:56:20;;;;;;;10.9;8.1;;;;;;;15.06;88.65234;943.2905;;;;
2022/10/12 06:58:44;;;;;;;14.3;9.2;;;;;;;15.13;88.3418;943.3331;;;;
2022/10/12 07:01:12;;;;;;;17.5;10.3;;;;;;;15.19;87.92773;943.317;;;;
2022/10/12 07:03:37;;;;;;;13.7;8.4;;;;;;;15.21;88.34668;943.3716;;;;
2022/10/12 07:06:08;;;;;;;9.6;6.8;;;;;;;15.18;86.62012;943.3644;;;;
2022/10/12 07:08:32;;;;;;;11.3;6.9;;;;;;;15.18;86.6543;943.3491;;;;
2022/10/12 07:11:00;;;;;;;14.9;6.6;;;;;;;15.25;86.02246;943.3926;;;;
2022/10/12 07:13:25;;;;;;;13.2;5.4;;;;;;;15.11;85.83301;943.3547;;;;
2022/10/12 07:16:00;;;;;;;8.9;4.9;;;;;;;15;85.79004;943.4578;;;;
2022/10/12 07:18:30;;;;;;;7.6;4.8;;;;;;;15.11;85.67285;943.3691;;;;
2022/10/12 07:21:01;;;;;;;9;4.2;;;;;;;15.2;84.26953;943.4358;;;;
2022/10/12 07:23:24;;;;;;;7.3;4.4;;;;;;;15.11;84.02246;943.4509;;;;
2022/10/12 07:25:54;;;;;;;8.1;4.4;;;;;;;14.99;83.75781;943.4939;;;;
2022/10/12 07:28:21;;;;;;;8;4.5;;;;;;;14.86;84.81641;943.4673;;;;
2022/10/12 07:30:46;;;;;;;9.1;4.9;;;;;;;14.75;86.31836;943.4579;;;;
2022/10/12 07:33:19;;;;;;;10.6;5;;;;;;;15.06;86.41406;943.4109;;;;
2022/10/12 07:35:50;;;;;;;10.9;5.4;;;;;;;15.27;85.43945;943.4456;;;;
2022/10/12 07:38:16;;;;;;;10;5.5;;;;;;;15.43;85.45801;943.4105;;;;
2022/10/12 07:40:41;;;;;;;8.1;4.5;;;;;;;15.6;84.13965;943.4548;;;;
2022/10/12 07:43:09;;;;;;;6.6;4.4;;;;;;;15.57;82.03223;943.3678;;;;
2022/10/12 07:45:40;;;;;;;7.6;4.5;;;;;;;15.5;81.31445;943.3943;;;;
2022/10/12 07:48:05;;;;;;;8.1;4.6;;;;;;;15.44;81.04883;943.3833;;;;
2022/10/12 07:50:30;;;;;;;6;4.1;;;;;;;15.32;81.81152;943.4256;;;;
2022/10/12 07:52:55;;;;;;;8.2;4.3;;;;;;;15.41;82.22168;943.4142;;;;
2022/10/12 07:55:20;;;;;;;8.3;5.2;;;;;;;15.58;81.69727;943.3847;;;;
2022/10/12 07:57:50;;;;;;;11.4;5.8;;;;;;;15.72;81.8418;943.377;;;;
2022/10/12 08:00:15;;;;;;;13.9;6.6;;;;;;;15.75;80.71387;943.3881;;;;
2022/10/12 08:02:45;;;;;;;8;5;;;;;;;15.69;80.49316;943.3233;;;;
2022/10/12 08:05:10;;;;;;;13.3;6.2;;;;;;;15.74;80.67578;943.3713;;;;
2022/10/12 08:07:41;;;;;;;10.2;4.9;;;;;;;15.91;80.01465;943.3543;;;;
2022/10/12 08:10:15;;;;;;;7.4;3.8;;;;;;;16.13;78.49414;943.39;;;;
2022/10/12 08:12:40;;;;;;;10.1;4.5;;;;;;;16.55;76.76465;943.3806;;;;
2022/10/12 08:15:12;;;;;;;5.6;3.4;;;;;;;17.03;76.58008;943.3619;;;;
2022/10/12 08:17:38;;;;;;;4.3;3.1;;;;;;;17.37;74.78418;943.3797;;;;
2022/10/12 08:20:07;;;;;;;8.9;4.6;;;;;;;17.33;72.28418;943.3856;;;;
2022/10/12 08:22:32;;;;;;;7.5;3.9;;;;;;;17.25;72.77148;943.4008;;;;
2022/10/12 08:25:01;;;;;;;10.8;4.5;;;;;;;17.1;73.3252;943.3686;;;;
2022/10/12 08:27:26;;;;;;;8.3;4.2;;;;;;;17.23;74.5752;943.343;;;;
2022/10/12 08:29:51;;;;;;;7.7;4.6;;;;;;;17.91;72.04395;943.3781;;;;
2022/10/12 08:32:16;;;;;;;8.9;4.6;;;;;;;18.28;70.58105;943.3568;;;;
2022/10/12 08:34:41;;;;;;;7.1;4.2;;;;;;;19.03;66.87109;943.3627;;;;
2022/10/12 08:37:10;;;;;;;6.4;4;;;;;;;19.24;65.5293;943.3572;;;;
2022/10/12 08:39:40;;;;;;;9.3;4.1;;;;;;;18.74;66.60449;943.3412;;;;
2022/10/12 08:42:05;;;;;;;7.7;4.1;;;;;;;18.78;66.87891;943.3592;;;;
2022/10/12 08:44:36;;;;;;;6.5;4;;;;;;;18.74;66.80371;943.3808;;;;
2022/10/12 08:47:07;;;;;;;8.7;4.2;;;;;;;18.71;67.20605;943.3667;;;;
2022/10/12 08:49:38;;;;;;;9.6;4.5;;;;;;;18.71;66.81055;943.2974;;;;
2022/10/12 08:52:01;;;;;;;7.5;4;;;;;;;19.1;66.56738;943.3164;;;;
2022/10/12 08:54:31;;;;;;;7.4;4.2;;;;;;;19.8;63.9082;943.2527;;;;
2022/10/12 08:57:01;;;;;;;7.8;4.2;;;;;;;19.76;63.51855;943.2929;;;;
2022/10/12 09:05:24;;;;;;;5.2;3.8;;;;;;;21.46;57.89844;943.2626;;;;
2022/10/12 09:07:46;;;;;;;7.4;3.3;;;;;;;21.86;55.96973;943.2766;;;;
2022/10/12 09:10:12;;;;;;;7.6;3.3;;;;;;;21.52;57.82324;943.257;;;;
2022/10/12 09:12:39;;;;;;;7.4;3.8;;;;;;;21.65;54.86719;943.2864;;;;
2022/10/12 09:15:09;;;;;;;5.4;2.8;;;;;;;21.21;55.73535;943.2206;;;;
2022/10/12 09:17:37;;;;;;;6.8;3.3;;;;;;;20.61;58.83887;943.2679;;;;
2022/10/12 09:20:03;;;;;;;3.7;3;;;;;;;20.75;57.53613;943.2273;;;;
2022/10/12 09:22:30;;;;;;;7.3;3.4;;;;;;;20.91;58.30664;943.2255;;;;
2022/10/12 09:25:01;;;;;;;6.4;3.3;;;;;;;20.71;58.0459;943.2395;;;;
2022/10/12 09:27:27;;;;;;;5;3.7;;;;;;;20.89;57.91797;943.2358;;;;
2022/10/12 09:29:52;;;;;;;6.4;4;;;;;;;20.68;58.73047;943.1577;;;;
2022/10/12 09:32:20;;;;;;;5.2;3.9;;;;;;;20.32;61.53125;943.0688;;;;
2022/10/12 09:34:47;;;;;;;7.1;3.6;;;;;;;20.7;60.89453;943.1217;;;;
2022/10/12 09:37:12;;;;;;;6.5;3.8;;;;;;;20.52;60.9873;943.0808;;;;
2022/10/12 09:39:39;;;;;;;6.8;3.7;;;;;;;19.89;64.20117;943.1284;;;;
2022/10/12 09:42:05;;;;;;;7.6;4;;;;;;;19.81;61.47266;943.1005;;;;
2022/10/12 09:44:30;;;;;;;5;3.4;;;;;;;19.98;61.83496;943.1072;;;;
2022/10/12 09:46:56;;;;;;;10;4.3;;;;;;;19.92;62.47949;943.0689;;;;
2022/10/12 09:49:25;;;;;;;8.4;3.6;;;;;;;20.08;62.92188;942.9885;;;;
2022/10/12 09:51:55;;;;;;;5.3;3.4;;;;;;;19.7;63.74219;942.9676;;;;
2022/10/12 09:54:20;;;;;;;6.5;3.9;;;;;;;19.57;64.56348;942.9922;;;;
2022/10/12 09:56:49;;;;;;;6.8;3.9;;;;;;;19.26;65.33398;942.9202;;;;
2022/10/12 09:59:14;;;;;;;6.2;3.8;;;;;;;19.56;67.02051;942.9755;;;;
2022/10/12 10:01:45;;;;;;;6.9;3.9;;;;;;;19.49;66.46191;942.9554;;;;
2022/10/12 10:04:10;;;;;;;5.3;3.9;;;;;;;19.6;65.16211;942.8849;;;;
2022/10/12 10:06:35;;;;;;;7.6;4.1;;;;;;;19.87;65.59961;942.8918;;;;
2022/10/12 10:09:00;;;;;;;6.1;3.9;;;;;;;19.94;66.64746;942.9584;;;;
2022/10/12 10:11:25;;;;;;;6.6;3.8;;;;;;;19.7;65.43359;942.9109;;;;
2022/10/12 10:13:50;;;;;;;7.5;4.7;;;;;;;20.12;64.9248;942.9051;;;;
2022/10/12 10:16:16;;;;;;;7.9;5.2;;;;;;;19.94;65.64355;942.9117;;;;
2022/10/12 10:18:41;;;;;;;7.8;5.2;;;;;;;20.19;64.86523;942.9247;;;;
2022/10/12 10:21:05;;;;;;;6.4;5.4;;;;;;;20.37;63.89746;942.8987;;;;
2022/10/12 10:23:31;;;;;;;11.8;6.2;;;;;;;20.49;65.00195;942.8934;;;;
2022/10/12 10:25:56;;;;;;;8.5;5.7;;;;;;;20.05;65.96387;942.934;;;;
2022/10/12 10:28:21;;;;;;;10.9;5.9;;;;;;;20.14;65.7793;942.8723;;;;
2022/10/12 10:30:46;;;;;;;10.5;6.6;;;;;;;20.03;66.03125;942.8091;;;;
2022/10/12 10:33:11;;;;;;;8.8;6.1;;;;;;;19.91;67.90234;942.8636;;;;
2022/10/12 10:36:28;;;;;;;11.2;6.1;;;;;;;20.25;65.04688;942.7573;;;;
2022/10/12 10:38:48;;;;;;;9.1;5.7;;;;;;;20.87;62.31055;942.8283;;;;
2022/10/12 10:41:13;;;;;;;9.3;6.2;;;;;;;21.09;62.66895;942.7796;;;;
2022/10/12 10:43:38;;;;;;;10.4;6.4;;;;;;;20.78;65.30078;942.8389;;;;
2022/10/12 10:46:07;;;;;;;13;6.1;;;;;;;20.91;63.28711;942.8345;;;;
2022/10/12 10:48:31;;;;;;;10.6;5.8;;;;;;;20.91;61.98828;942.82;;;;
2022/10/12 10:51:01;;;;;;;9.7;5.7;;;;;;;20.81;63.4707;942.8164;;;;
2022/10/12 10:53:25;;;;;;;9.2;5.8;;;;;;;21.05;61.30664;942.7247;;;;
2022/10/12 10:55:50;;;;;;;10.4;6.1;;;;;;;20.68;63.82617;942.7812;;;;
2022/10/12 10:58:15;;;;;;;11;6.6;;;;;;;20.81;63.7627;942.823;;;;
2022/10/12 11:00:40;;;;;;;10.6;6.4;;;;;;;21.21;61.69043;942.8334;;;;
2022/10/12 11:03:06;;;;;;;11.8;7.4;;;;;;;21.29;61.94727;942.7706;;;;
2022/10/12 11:06:53;;;;;;;11;6.7;;;;;;;21.37;61.65332;942.8075;;;;
2022/10/12 11:09:18;;;;;;;10;6.7;;;;;;;21.17;61.89648;942.7226;;;;
2022/10/12 11:11:43;;;;;;;10.6;6.5;;;;;;;21.03;62.34375;942.71;;;;
2022/10/12 11:14:09;;;;;;;8.7;5.9;;;;;;;21.36;62.09863;942.7258;;;;
2022/10/12 11:16:34;;;;;;;8.5;5.4;;;;;;;22.14;57.85742;942.6353;;;;
2022/10/12 11:23:10;;;;;;;12;5.8;;;;;;;22.83;55.69238;942.6124;;;;
2022/10/12 11:25:38;;;;;;;6.5;4.9;;;;;;;23.57;52.01074;942.5275;;;;
2022/10/12 11:28:03;;;;;;;9;5.5;;;;;;;23.59;52.78906;942.5466;;;;
2022/10/12 11:30:28;;;;;;;7.2;5.2;;;;;;;24.17;51.59766;942.4828;;;;
2022/10/12 11:32:55;;;;;;;8.7;5;;;;;;;25;48.83789;942.5192;;;;
2022/10/12 11:35:21;;;;;;;6.1;4.7;;;;;;;25.28;48.18359;942.4996;;;;
2022/10/12 11:37:46;;;;;;;8.7;5.3;;;;;;;25.15;48.27637;942.5075;;;;
2022/10/12 11:40:13;;;;;;;11.6;6.1;;;;;;;24.79;49.32227;942.5145;;;;
2022/10/12 11:42:38;;;;;;;7.5;5.3;;;;;;;24.26;50.97168;942.4548;;;;
2022/10/12 11:45:03;;;;;;;7.2;5.5;;;;;;;24.2;50.36523;942.4647;;;;
2022/10/12 11:47:28;;;;;;;10;5.8;;;;;;;24.74;49.20996;942.5051;;;;
2022/10/12 11:49:58;;;;;;;9.6;6.2;;;;;;;24.46;49.89844;942.4553;;;;
2022/10/12 11:52:23;;;;;;;8.3;6.1;;;;;;;24.12;50.7207;942.4489;;;;
2022/10/12 11:54:48;;;;;;;8.3;5.4;;;;;;;24.18;50.75098;942.4102;;;;
2022/10/12 11:57:18;;;;;;;8.5;5.2;;;;;;;23.92;51.5332;942.4242;;;;
2022/10/12 11:59:44;;;;;;;10.9;5.7;;;;;;;23.84;52.03027;942.3943;;;;
2022/10/12 12:02:10;;;;;;;9.3;6.1;;;;;;;24.21;50.64844;942.3764;;;;
2022/10/12 12:04:35;;;;;;;8.5;5.6;;;;;;;24.54;49.58887;942.3326;;;;
2022/10/12 12:07:03;;;;;;;9;6.3;;;;;;;24.42;50.45898;942.4158;;;;
2022/10/12 12:09:28;;;;;;;10.2;6.3;;;;;;;24.49;50.09082;942.4459;;;;
2022/10/12 12:11:53;;;;;;;11.6;6.1;;;;;;;24.13;51.56934;942.3582;;;;
2022/10/12 12:14:19;;;;;;;10.7;6.7;;;;;;;24.92;48.85254;942.4406;;;;
2022/10/12 12:20:37;;;;;;;7.7;5.5;;;;;;;27.5;42.57324;942.3744;;;;
2022/10/12 12:23:02;;;;;;;9.4;5.9;;;;;;;29.18;38.43262;942.3572;;;;
2022/10/12 12:25:31;;;;;;;8.5;5.7;;;;;;;28.62;40.05078;942.2575;;;;
2022/10/12 12:27:56;;;;;;;8.8;5.6;;;;;;;29.71;38.2041;942.2646;;;;
2022/10/12 12:30:58;;;;;;;8.6;5.6;;;;;;;29.2;38.70898;942.3787;;;;
2022/10/12 12:33:23;;;;;;;7.3;5.3;;;;;;;29.85;37.85742;942.3436;;;;
2022/10/12 12:35:51;;;;;;;9.3;5.3;;;;;;;30.54;35.95605;942.3353;;;;
2022/10/12 12:38:16;;;;;;;9.3;5.1;;;;;;;31.98;33.4707;942.2447;;;;
2022/10/12 12:40:41;;;;;;;7.5;4.8;;;;;;;29.95;37.38965;942.3457;;;;
2022/10/12 12:43:06;;;;;;;6.4;4.8;;;;;;;31.62;33.86328;942.2723;;;;
2022/10/12 12:45:42;;;;;;;9.7;5.3;;;;;;;29.38;37.91406;942.2511;;;;
2022/10/12 12:48:11;;;;;;;9.3;5.5;;;;;;;31.53;33.80859;942.3117;;;;
2022/10/12 12:54:23;;;;;;;9.8;5.2;;;;;;;30.7;35.52734;942.258;;;;
2022/10/12 12:56:49;;;;;;;7.2;4.5;;;;;;;31.46;34.58203;942.2229;;;;
2022/10/12 12:59:14;;;;;;;8.8;5;;;;;;;31.51;34.05762;942.2647;;;;
2022/10/12 13:01:44;;;;;;;6.7;4.7;;;;;;;30.56;35.43262;942.2137;;;;
2022/10/12 13:04:11;;;;;;;9.1;4.5;;;;;;;31.1;34.94922;942.1806;;;;
2022/10/12 13:08:00;;;;;;;7.2;4.3;;;;;;;30.81;34.88965;942.1364;;;;
2022/10/12 13:10:30;;;;;;;5.8;4.6;;;;;;;31.34;33.91406;942.0719;;;;
2022/10/12 13:12:55;;;;;;;6.8;4.7;;;;;;;30.6;35.25684;942.0441;;;;
2022/10/12 13:15:22;;;;;;;8.6;4.5;;;;;;;30.92;34.74316;942.0859;;;;
2022/10/12 13:17:50;;;;;;;8;4.8;;;;;;;30.52;34.80859;942.065;;;;
2022/10/12 13:20:20;;;;;;;8;5.2;;;;;;;30.37;35.11914;942.0295;;;;
2022/10/12 13:22:49;;;;;;;8.8;4.8;;;;;;;30.08;35.33496;942.0761;;;;
2022/10/12 13:25:14;;;;;;;8.6;4.7;;;;;;;30.43;35.63672;942.0908;;;;
2022/10/12 13:27:39;;;;;;;8;4.7;;;;;;;29.42;37.0957;942.0466;;;;
2022/10/12 13:30:11;;;;;;;7.3;4.5;;;;;;;28.6;38.69336;942.0584;;;;
2022/10/12 13:32:37;;;;;;;7.5;4;;;;;;;30.2;36.16797;942.0628;;;;
2022/10/12 13:35:01;;;;;;;7.5;4.6;;;;;;;30.4;35.79004;942.0483;;;;
2022/10/12 13:37:28;;;;;;;8;4.9;;;;;;;30.56;34.67969;942.0558;;;;
2022/10/12 13:39:55;;;;;;;6.5;4.5;;;;;;;29.34;37.10059;942.0355;;;;
2022/10/12 13:42:18;;;;;;;7.5;4.4;;;;;;;27.37;40.28418;941.9894;;;;
2022/10/12 13:44:45;;;;;;;8.4;4.2;;;;;;;28.91;38.18359;942.0762;;;;
2022/10/12 13:47:10;;;;;;;7.9;4.7;;;;;;;29.74;36.37012;941.9902;;;;
2022/10/12 13:49:35;;;;;;;8.3;4.4;;;;;;;29.64;36.50488;942.0042;;;;
2022/10/12 13:52:01;;;;;;;7.7;5.1;;;;;;;30.49;35.43945;942.0034;;;;
2022/10/12 13:54:27;;;;;;;7;4.7;;;;;;;28.75;37.75391;942.0385;;;;
2022/10/12 13:56:51;;;;;;;6.7;4.9;;;;;;;29.15;37.2041;942.0193;;;;
2022/10/12 13:59:20;;;;;;;6.9;4.4;;;;;;;29.6;36.70508;942.0302;;;;
2022/10/12 14:01:45;;;;;;;8;4.4;;;;;;;29.81;36.18457;942.093;;;;
2022/10/12 14:04:15;;;;;;;6.8;3.9;;;;;;;29.45;36.88281;942.0151;;;;
2022/10/12 14:06:40;;;;;;;6.2;4.3;;;;;;;28.94;37.48438;941.985;;;;
2022/10/12 14:09:05;;;;;;;8.4;4.9;;;;;;;28.05;39.28613;942.0433;;;;
2022/10/12 14:11:30;;;;;;;8;4;;;;;;;28.14;38.87891;941.9808;;;;
2022/10/12 14:13:58;;;;;;;8.4;5;;;;;;;28.48;38.96875;941.993;;;;
2022/10/12 14:16:23;;;;;;;7;4.5;;;;;;;28.49;39.49219;941.9695;;;;
2022/10/12 14:18:50;;;;;;;8.7;4.7;;;;;;;27.87;40.80371;941.9885;;;;
2022/10/12 14:21:15;;;;;;;6.4;4.4;;;;;;;28.1;39.19727;941.9437;;;;
2022/10/12 14:23:43;;;;;;;8.1;4.4;;;;;;;27.83;40.33594;941.9821;;;;
2022/10/12 14:26:09;;;;;;;7.6;4.3;;;;;;;27.25;41.26855;941.9889;;;;
2022/10/12 14:28:35;;;;;;;10.5;4.8;;;;;;;27.55;40.78613;941.949;;;;
2022/10/12 14:31:00;;;;;;;7.8;4.3;;;;;;;26.71;42.2373;942.0272;;;;
2022/10/12 14:33:25;;;;;;;8.4;4.9;;;;;;;25.62;44.29785;942.0092;;;;
2022/10/12 14:35:50;;;;;;;8.2;4.6;;;;;;;24.49;47.45117;942.0298;;;;
2022/10/12 14:38:23;;;;;;;7.2;5.1;;;;;;;24.21;48.10449;942.0776;;;;
2022/10/12 14:40:48;;;;;;;8.5;4.8;;;;;;;24.22;48.08105;942.0328;;;;
2022/10/12 14:43:16;;;;;;;6.9;4.7;;;;;;;24.62;46.96875;942.111;;;;
2022/10/12 14:45:42;;;;;;;9.7;4.5;;;;;;;24.61;47.4873;942.0439;;;;
2022/10/12 14:48:08;;;;;;;9;4.6;;;;;;;23.77;49.62305;942.0288;;;;
2022/10/12 14:50:34;;;;;;;8.4;5.6;;;;;;;23.88;49.13965;942.0944;;;;
2022/10/12 14:53:01;;;;;;;8.6;5;;;;;;;23.97;48.90234;942.1228;;;;
2022/10/12 14:55:27;;;;;;;12.7;5.4;;;;;;;23.77;49.33984;942.0858;;;;
2022/10/12 14:57:55;;;;;;;9.8;5.2;;;;;;;23.86;48.9375;942.0781;;;;
2022/10/12 15:00:30;;;;;;;6.9;4.9;;;;;;;23.42;49.66504;942.0508;;;;
2022/10/12 15:02:55;;;;;;;10.1;5.1;;;;;;;21.41;55.45605;942.198;;;;
2022/10/12 15:05:23;;;;;;;9.2;5;;;;;;;20.81;57.76758;942.1581;;;;
2022/10/12 15:07:49;;;;;;;7.9;5.5;;;;;;;20.52;58.86133;942.168;;;;
2022/10/12 15:10:16;;;;;;;8.8;5.5;;;;;;;20.52;58.97852;942.1923;;;;
2022/10/12 15:12:46;;;;;;;9.8;5.6;;;;;;;20.4;59.38184;942.2292;;;;
2022/10/12 15:15:17;;;;;;;11.4;5.2;;;;;;;20;60.90527;942.1456;;;;
2022/10/12 15:17:48;;;;;;;8.6;5.3;;;;;;;19.92;61.26758;942.1877;;;;
2022/10/12 15:20:18;;;;;;;7.6;4.9;;;;;;;19.78;61.57324;942.233;;;;
2022/10/12 15:22:43;;;;;;;10;5.2;;;;;;;19.34;63.42383;942.2008;;;;
2022/10/12 15:25:07;;;;;;;9;5.4;;;;;;;18.96;64.76465;942.2084;;;;
2022/10/12 15:27:35;;;;;;;10.7;5.6;;;;;;;18.82;65.44141;942.2185;;;;
2022/10/12 15:30:00;;;;;;;9.5;6;;;;;;;18.57;66.82422;942.2283;;;;
2022/10/12 15:32:25;;;;;;;8.9;5.5;;;;;;;18.62;67.42578;942.2366;;;;
2022/10/12 15:34:52;;;;;;;8.5;5.5;;;;;;;18.42;66.74316;942.2406;;;;
2022/10/12 15:37:25;;;;;;;10.1;5.2;;;;;;;18.11;68.03223;942.2527;;;;
2022/10/12 15:39:47;;;;;;;9.1;5.7;;;;;;;17.99;68.57227;942.1677;;;;
2022/10/12 15:42:16;;;;;;;10;5.9;;;;;;;17.76;69.73047;942.2597;;;;
2022/10/12 15:44:41;;;;;;;10.1;6;;;;;;;17.68;69.96191;942.3;;;;
2022/10/12 15:47:07;;;;;;;11.5;5.8;;;;;;;17.45;71.35254;942.4139;;;;
2022/10/12 15:49:34;;;;;;;11;5.7;;;;;;;17.56;70.8252;942.3926;;;;
2022/10/12 15:51:59;;;;;;;10.1;5.6;;;;;;;17.31;72.08496;942.3619;;;;
2022/10/12 15:54:27;;;;;;;10.6;5.7;;;;;;;17.29;72.3457;942.3742;;;;
2022/10/12 15:56:52;;;;;;;10.9;5.9;;;;;;;17.35;71.97461;942.355;;;;
2022/10/12 15:59:17;;;;;;;8.9;5.8;;;;;;;17.3;72.54688;942.3394;;;;
2022/10/12 16:01:43;;;;;;;13;5.8;;;;;;;17.27;72.42676;942.3816;;;;
2022/10/12 16:04:09;;;;;;;9.6;6.1;;;;;;;17.07;73.71387;942.3381;;;;
2022/10/12 16:06:35;;;;;;;11.1;6.5;;;;;;;17.06;73.5498;942.2424;;;;